sensor_id;sensor_type;location;lat;lon;timestamp;temperature;humidity
12874;DHT22;6505;51.114;13.128;2022-11-22T00:00:54;8.20;54.50
12874;DHT22;6505;51.114;13.128;2022-11-22T00:03:23;8.20;54.50
12874;DHT22;6505;51.114;13.128;2022-11-22T00:05:51;8.30;54.80
12874;DHT22;6505;51.114;13.128;2022-11-22T00:08:19;8.20;54.90
12874;DHT22;6505;51.114;13.128;2022-11-22T00:10:47;8.20;54.90
12874;DHT22;6505;51.114;13.128;2022-11-22T00:13:16;8.20;55.00
12874;DHT22;6505;51.114;13.128;2022-11-22T00:15:57;8.20;54.60
12874;DHT22;6505;51.114;13.128;2022-11-22T00:18:27;8.20;54.50
12874;DHT22;6505;51.114;13.128;2022-11-22T00:20:56;8.20;54.40
12874;DHT22;6505;51.114;13.128;2022-11-22T00:23:24;8.20;54.30
12874;DHT22;6505;51.114;13.128;2022-11-22T00:25:52;8.20;54.90
12874;DHT22;6505;51.114;13.128;2022-11-22T00:28:20;8.20;54.30
12874;DHT22;6505;51.114;13.128;2022-11-22T00:30:48;8.20;54.40
12874;DHT22;6505;51.114;13.128;2022-11-22T00:33:16;8.20;54.50
12874;DHT22;6505;51.114;13.128;2022-11-22T00:35:45;8.20;54.50
12874;DHT22;6505;51.114;13.128;2022-11-22T00:38:13;8.20;54.70
12874;DHT22;6505;51.114;13.128;2022-11-22T00:40:42;8.20;54.90
12874;DHT22;6505;51.114;13.128;2022-11-22T00:43:10;8.20;55.00
12874;DHT22;6505;51.114;13.128;2022-11-22T00:45:39;8.20;54.90
12874;DHT22;6505;51.114;13.128;2022-11-22T00:48:09;8.20;55.00
12874;DHT22;6505;51.114;13.128;2022-11-22T00:50:38;8.20;54.90
12874;DHT22;6505;51.114;13.128;2022-11-22T00:53:07;8.20;54.90
12874;DHT22;6505;51.114;13.128;2022-11-22T00:55:35;8.20;54.90
12874;DHT22;6505;51.114;13.128;2022-11-22T00:58:03;8.20;54.70
12874;DHT22;6505;51.114;13.128;2022-11-22T01:00:31;8.20;54.50
12874;DHT22;6505;51.114;13.128;2022-11-22T01:02:59;8.10;54.40
12874;DHT22;6505;51.114;13.128;2022-11-22T01:05:27;8.20;54.50
12874;DHT22;6505;51.114;13.128;2022-11-22T01:07:55;8.20;54.50
12874;DHT22;6505;51.114;13.128;2022-11-22T01:10:25;8.20;54.60
12874;DHT22;6505;51.114;13.128;2022-11-22T01:12:53;8.20;54.50
12874;DHT22;6505;51.114;13.128;2022-11-22T01:15:23;8.20;54.70
12874;DHT22;6505;51.114;13.128;2022-11-22T01:17:52;8.20;54.70
12874;DHT22;6505;51.114;13.128;2022-11-22T01:20:20;8.20;54.80
12874;DHT22;6505;51.114;13.128;2022-11-22T01:22:48;8.20;54.60
12874;DHT22;6505;51.114;13.128;2022-11-22T01:25:16;8.10;54.50
12874;DHT22;6505;51.114;13.128;2022-11-22T01:27:46;8.20;54.70
12874;DHT22;6505;51.114;13.128;2022-11-22T01:30:18;8.20;54.90
12874;DHT22;6505;51.114;13.128;2022-11-22T01:32:46;8.20;55.00
12874;DHT22;6505;51.114;13.128;2022-11-22T01:35:14;8.20;55.00
12874;DHT22;6505;51.114;13.128;2022-11-22T01:37:42;8.20;54.90
12874;DHT22;6505;51.114;13.128;2022-11-22T01:40:11;8.20;54.50
12874;DHT22;6505;51.114;13.128;2022-11-22T01:42:42;8.20;54.30
12874;DHT22;6505;51.114;13.128;2022-11-22T01:45:43;8.20;54.20
12874;DHT22;6505;51.114;13.128;2022-11-22T01:48:45;8.20;54.00
12874;DHT22;6505;51.114;13.128;2022-11-22T01:51:24;8.10;54.00
12874;DHT22;6505;51.114;13.128;2022-11-22T01:53:55;8.20;54.00
12874;DHT22;6505;51.114;13.128;2022-11-22T01:56:28;8.20;54.10
12874;DHT22;6505;51.114;13.128;2022-11-22T01:59:00;8.10;54.00
12874;DHT22;6505;51.114;13.128;2022-11-22T02:01:33;8.10;53.90
12874;DHT22;6505;51.114;13.128;2022-11-22T02:04:03;8.10;53.70
12874;DHT22;6505;51.114;13.128;2022-11-22T02:06:38;8.10;53.60
12874;DHT22;6505;51.114;13.128;2022-11-22T02:09:13;8.00;53.50
12874;DHT22;6505;51.114;13.128;2022-11-22T02:11:46;8.10;53.40
12874;DHT22;6505;51.114;13.128;2022-11-22T02:14:19;8.10;53.40
12874;DHT22;6505;51.114;13.128;2022-11-22T02:16:52;8.00;53.40
12874;DHT22;6505;51.114;13.128;2022-11-22T02:19:25;8.00;53.30
12874;DHT22;6505;51.114;13.128;2022-11-22T02:22:05;8.00;53.30
12874;DHT22;6505;51.114;13.128;2022-11-22T02:24:44;8.00;53.40
12874;DHT22;6505;51.114;13.128;2022-11-22T02:27:18;8.00;53.50
12874;DHT22;6505;51.114;13.128;2022-11-22T02:29:46;8.00;53.70
12874;DHT22;6505;51.114;13.128;2022-11-22T02:32:14;7.90;53.50
12874;DHT22;6505;51.114;13.128;2022-11-22T02:34:45;7.90;53.50
12874;DHT22;6505;51.114;13.128;2022-11-22T02:37:17;7.90;53.50
12874;DHT22;6505;51.114;13.128;2022-11-22T02:39:51;7.90;53.50
12874;DHT22;6505;51.114;13.128;2022-11-22T02:42:25;7.90;53.40
12874;DHT22;6505;51.114;13.128;2022-11-22T02:44:55;7.90;53.30
12874;DHT22;6505;51.114;13.128;2022-11-22T02:47:23;7.90;53.20
12874;DHT22;6505;51.114;13.128;2022-11-22T02:49:52;7.90;53.10
12874;DHT22;6505;51.114;13.128;2022-11-22T02:52:20;7.90;53.30
12874;DHT22;6505;51.114;13.128;2022-11-22T02:54:48;7.90;53.00
12874;DHT22;6505;51.114;13.128;2022-11-22T02:57:17;7.90;53.00
12874;DHT22;6505;51.114;13.128;2022-11-22T02:59:46;7.90;53.00
12874;DHT22;6505;51.114;13.128;2022-11-22T03:02:14;7.90;53.10
12874;DHT22;6505;51.114;13.128;2022-11-22T03:04:42;7.90;53.30
12874;DHT22;6505;51.114;13.128;2022-11-22T03:07:10;7.90;53.60
12874;DHT22;6505;51.114;13.128;2022-11-22T03:09:38;7.90;53.90
12874;DHT22;6505;51.114;13.128;2022-11-22T03:12:06;7.90;53.90
12874;DHT22;6505;51.114;13.128;2022-11-22T03:14:34;7.90;53.80
12874;DHT22;6505;51.114;13.128;2022-11-22T03:17:04;7.90;53.90
12874;DHT22;6505;51.114;13.128;2022-11-22T03:19:32;7.90;53.80
12874;DHT22;6505;51.114;13.128;2022-11-22T03:22:00;7.90;53.70
12874;DHT22;6505;51.114;13.128;2022-11-22T03:24:28;7.90;53.50
12874;DHT22;6505;51.114;13.128;2022-11-22T03:26:56;7.90;53.40
12874;DHT22;6505;51.114;13.128;2022-11-22T03:29:24;7.90;53.30
12874;DHT22;6505;51.114;13.128;2022-11-22T03:31:55;7.90;53.20
12874;DHT22;6505;51.114;13.128;2022-11-22T03:34:24;7.90;53.30
12874;DHT22;6505;51.114;13.128;2022-11-22T03:36:52;7.90;53.50
12874;DHT22;6505;51.114;13.128;2022-11-22T03:39:20;7.90;53.90
12874;DHT22;6505;51.114;13.128;2022-11-22T03:41:48;7.90;54.10
12874;DHT22;6505;51.114;13.128;2022-11-22T03:44:16;7.90;54.30
12874;DHT22;6505;51.114;13.128;2022-11-22T03:46:45;7.90;54.70
12874;DHT22;6505;51.114;13.128;2022-11-22T03:49:13;7.90;54.80
12874;DHT22;6505;51.114;13.128;2022-11-22T03:51:43;7.90;54.70
12874;DHT22;6505;51.114;13.128;2022-11-22T03:54:11;7.90;55.00
12874;DHT22;6505;51.114;13.128;2022-11-22T03:56:39;7.90;55.30
12874;DHT22;6505;51.114;13.128;2022-11-22T03:59:07;7.90;55.30
12874;DHT22;6505;51.114;13.128;2022-11-22T04:01:35;7.90;55.40
12874;DHT22;6505;51.114;13.128;2022-11-22T04:04:04;7.90;55.50
12874;DHT22;6505;51.114;13.128;2022-11-22T04:06:32;8.00;55.60
12874;DHT22;6505;51.114;13.128;2022-11-22T04:09:01;8.00;55.60
12874;DHT22;6505;51.114;13.128;2022-11-22T04:11:30;8.00;55.80
12874;DHT22;6505;51.114;13.128;2022-11-22T04:13:58;8.00;55.70
12874;DHT22;6505;51.114;13.128;2022-11-22T04:16:44;8.00;55.80
12874;DHT22;6505;51.114;13.128;2022-11-22T04:19:12;8.00;55.70
12874;DHT22;6505;51.114;13.128;2022-11-22T04:21:40;8.00;55.80
12874;DHT22;6505;51.114;13.128;2022-11-22T04:24:10;8.10;55.90
12874;DHT22;6505;51.114;13.128;2022-11-22T04:26:56;8.10;56.10
12874;DHT22;6505;51.114;13.128;2022-11-22T04:29:25;8.10;56.20
12874;DHT22;6505;51.114;13.128;2022-11-22T04:31:54;8.10;56.10
12874;DHT22;6505;51.114;13.128;2022-11-22T04:34:39;8.10;56.20
12874;DHT22;6505;51.114;13.128;2022-11-22T04:37:07;8.10;56.20
12874;DHT22;6505;51.114;13.128;2022-11-22T04:39:36;8.10;56.10
12874;DHT22;6505;51.114;13.128;2022-11-22T04:42:05;8.10;56.30
12874;DHT22;6505;51.114;13.128;2022-11-22T04:44:50;8.10;56.20
12874;DHT22;6505;51.114;13.128;2022-11-22T04:47:18;8.10;56.20
12874;DHT22;6505;51.114;13.128;2022-11-22T04:50:06;8.10;56.30
12874;DHT22;6505;51.114;13.128;2022-11-22T04:52:51;8.10;56.40
12874;DHT22;6505;51.114;13.128;2022-11-22T04:55:24;8.10;56.60
12874;DHT22;6505;51.114;13.128;2022-11-22T04:57:52;8.10;56.30
12874;DHT22;6505;51.114;13.128;2022-11-22T05:00:26;8.10;56.60
12874;DHT22;6505;51.114;13.128;2022-11-22T05:02:55;8.10;56.80
12874;DHT22;6505;51.114;13.128;2022-11-22T05:05:23;8.10;56.70
12874;DHT22;6505;51.114;13.128;2022-11-22T05:07:52;8.10;57.00
12874;DHT22;6505;51.114;13.128;2022-11-22T05:10:20;8.10;56.90
12874;DHT22;6505;51.114;13.128;2022-11-22T05:12:54;8.20;57.00
12874;DHT22;6505;51.114;13.128;2022-11-22T05:15:22;8.10;57.00
12874;DHT22;6505;51.114;13.128;2022-11-22T05:17:51;8.20;57.00
12874;DHT22;6505;51.114;13.128;2022-11-22T05:20:19;8.20;57.00
12874;DHT22;6505;51.114;13.128;2022-11-22T05:22:47;8.20;57.10
12874;DHT22;6505;51.114;13.128;2022-11-22T05:25:32;8.20;57.00
12874;DHT22;6505;51.114;13.128;2022-11-22T05:28:02;8.20;57.00
12874;DHT22;6505;51.114;13.128;2022-11-22T05:30:30;8.30;57.00
12874;DHT22;6505;51.114;13.128;2022-11-22T05:32:58;8.30;57.00
12874;DHT22;6505;51.114;13.128;2022-11-22T05:35:26;8.30;56.80
12874;DHT22;6505;51.114;13.128;2022-11-22T05:37:55;8.30;56.80
12874;DHT22;6505;51.114;13.128;2022-11-22T05:40:23;8.30;56.90
12874;DHT22;6505;51.114;13.128;2022-11-22T05:42:52;8.30;56.90
12874;DHT22;6505;51.114;13.128;2022-11-22T05:45:21;8.30;57.00
12874;DHT22;6505;51.114;13.128;2022-11-22T05:47:49;8.30;56.80
12874;DHT22;6505;51.114;13.128;2022-11-22T05:50:17;8.30;56.80
12874;DHT22;6505;51.114;13.128;2022-11-22T05:52:53;8.40;56.90
12874;DHT22;6505;51.114;13.128;2022-11-22T05:55:21;8.40;56.90
12874;DHT22;6505;51.114;13.128;2022-11-22T05:57:50;8.40;56.90
12874;DHT22;6505;51.114;13.128;2022-11-22T06:00:18;8.40;57.00
12874;DHT22;6505;51.114;13.128;2022-11-22T06:02:47;8.40;57.20
12874;DHT22;6505;51.114;13.128;2022-11-22T06:05:16;8.40;57.20
12874;DHT22;6505;51.114;13.128;2022-11-22T06:07:44;8.40;57.20
12874;DHT22;6505;51.114;13.128;2022-11-22T06:10:13;8.40;57.90
12874;DHT22;6505;51.114;13.128;2022-11-22T06:12:41;8.40;57.20
12874;DHT22;6505;51.114;13.128;2022-11-22T06:15:09;8.50;57.30
12874;DHT22;6505;51.114;13.128;2022-11-22T06:17:37;8.40;57.20
12874;DHT22;6505;51.114;13.128;2022-11-22T06:20:08;8.40;57.30
12874;DHT22;6505;51.114;13.128;2022-11-22T06:22:37;8.50;57.40
12874;DHT22;6505;51.114;13.128;2022-11-22T06:25:06;8.50;57.20
12874;DHT22;6505;51.114;13.128;2022-11-22T06:27:34;8.50;57.10
12874;DHT22;6505;51.114;13.128;2022-11-22T06:30:03;8.50;56.80
12874;DHT22;6505;51.114;13.128;2022-11-22T06:32:32;8.50;57.00
12874;DHT22;6505;51.114;13.128;2022-11-22T06:35:01;8.50;56.80
12874;DHT22;6505;51.114;13.128;2022-11-22T06:37:31;8.50;56.80
12874;DHT22;6505;51.114;13.128;2022-11-22T06:39:59;8.50;56.60
12874;DHT22;6505;51.114;13.128;2022-11-22T06:42:27;8.50;56.50
12874;DHT22;6505;51.114;13.128;2022-11-22T06:44:55;8.50;56.50
12874;DHT22;6505;51.114;13.128;2022-11-22T06:47:23;8.50;56.40
12874;DHT22;6505;51.114;13.128;2022-11-22T06:49:51;8.50;56.40
12874;DHT22;6505;51.114;13.128;2022-11-22T06:52:19;8.50;56.50
12874;DHT22;6505;51.114;13.128;2022-11-22T06:54:48;8.50;56.50
12874;DHT22;6505;51.114;13.128;2022-11-22T06:57:16;8.50;56.50
12874;DHT22;6505;51.114;13.128;2022-11-22T06:59:45;8.50;56.50
12874;DHT22;6505;51.114;13.128;2022-11-22T07:02:13;8.50;56.50
12874;DHT22;6505;51.114;13.128;2022-11-22T07:04:41;8.50;56.50
12874;DHT22;6505;51.114;13.128;2022-11-22T07:07:29;8.50;56.60
12874;DHT22;6505;51.114;13.128;2022-11-22T07:09:59;8.50;56.60
12874;DHT22;6505;51.114;13.128;2022-11-22T07:12:27;8.50;56.70
12874;DHT22;6505;51.114;13.128;2022-11-22T07:14:55;8.50;56.70
12874;DHT22;6505;51.114;13.128;2022-11-22T07:17:23;8.50;56.80
12874;DHT22;6505;51.114;13.128;2022-11-22T07:19:51;8.50;56.80
12874;DHT22;6505;51.114;13.128;2022-11-22T07:22:19;8.50;56.80
12874;DHT22;6505;51.114;13.128;2022-11-22T07:24:47;8.50;56.80
12874;DHT22;6505;51.114;13.128;2022-11-22T07:27:16;8.50;56.80
12874;DHT22;6505;51.114;13.128;2022-11-22T07:29:44;8.60;57.50
12874;DHT22;6505;51.114;13.128;2022-11-22T07:32:12;8.50;56.90
12874;DHT22;6505;51.114;13.128;2022-11-22T07:34:40;8.50;56.80
12874;DHT22;6505;51.114;13.128;2022-11-22T07:37:08;8.50;56.80
12874;DHT22;6505;51.114;13.128;2022-11-22T07:39:36;8.50;56.80
12874;DHT22;6505;51.114;13.128;2022-11-22T07:42:04;8.50;56.80
12874;DHT22;6505;51.114;13.128;2022-11-22T07:44:34;8.50;56.90
12874;DHT22;6505;51.114;13.128;2022-11-22T07:47:02;8.60;57.00
12874;DHT22;6505;51.114;13.128;2022-11-22T07:49:30;8.50;57.10
12874;DHT22;6505;51.114;13.128;2022-11-22T07:51:58;8.60;57.20
12874;DHT22;6505;51.114;13.128;2022-11-22T07:54:26;8.60;57.30
12874;DHT22;6505;51.114;13.128;2022-11-22T07:56:54;8.60;57.30
12874;DHT22;6505;51.114;13.128;2022-11-22T07:59:22;8.60;57.30
12874;DHT22;6505;51.114;13.128;2022-11-22T08:01:52;8.60;57.40
12874;DHT22;6505;51.114;13.128;2022-11-22T08:04:20;8.60;57.50
12874;DHT22;6505;51.114;13.128;2022-11-22T08:06:48;8.60;57.60
12874;DHT22;6505;51.114;13.128;2022-11-22T08:09:16;8.60;57.80
12874;DHT22;6505;51.114;13.128;2022-11-22T08:11:44;8.60;57.90
12874;DHT22;6505;51.114;13.128;2022-11-22T08:14:12;8.60;57.90
12874;DHT22;6505;51.114;13.128;2022-11-22T08:16:40;8.70;58.20
12874;DHT22;6505;51.114;13.128;2022-11-22T08:19:10;8.70;58.20
12874;DHT22;6505;51.114;13.128;2022-11-22T08:21:43;8.70;58.30
12874;DHT22;6505;51.114;13.128;2022-11-22T08:24:11;8.70;58.30
12874;DHT22;6505;51.114;13.128;2022-11-22T08:26:40;8.70;59.00
12874;DHT22;6505;51.114;13.128;2022-11-22T08:29:10;8.70;58.40
12874;DHT22;6505;51.114;13.128;2022-11-22T08:31:40;8.70;58.40
12874;DHT22;6505;51.114;13.128;2022-11-22T08:34:09;8.70;58.40
12874;DHT22;6505;51.114;13.128;2022-11-22T08:36:37;8.80;58.60
12874;DHT22;6505;51.114;13.128;2022-11-22T08:39:05;8.80;58.50
12874;DHT22;6505;51.114;13.128;2022-11-22T08:41:34;8.80;59.20
12874;DHT22;6505;51.114;13.128;2022-11-22T08:44:02;8.80;58.50
12874;DHT22;6505;51.114;13.128;2022-11-22T08:46:30;8.80;58.60
12874;DHT22;6505;51.114;13.128;2022-11-22T08:48:58;8.80;58.50
12874;DHT22;6505;51.114;13.128;2022-11-22T08:51:27;8.80;58.50
12874;DHT22;6505;51.114;13.128;2022-11-22T08:53:55;8.80;58.50
12874;DHT22;6505;51.114;13.128;2022-11-22T08:56:23;8.80;58.50
12874;DHT22;6505;51.114;13.128;2022-11-22T08:58:52;8.90;58.50
12874;DHT22;6505;51.114;13.128;2022-11-22T09:01:21;8.90;58.70
12874;DHT22;6505;51.114;13.128;2022-11-22T09:03:49;8.90;58.70
12874;DHT22;6505;51.114;13.128;2022-11-22T09:06:18;8.90;58.70
12874;DHT22;6505;51.114;13.128;2022-11-22T09:09:08;8.90;58.90
12874;DHT22;6505;51.114;13.128;2022-11-22T09:11:56;8.90;58.90
12874;DHT22;6505;51.114;13.128;2022-11-22T09:14:24;8.90;58.90
12874;DHT22;6505;51.114;13.128;2022-11-22T09:16:52;9.00;59.10
12874;DHT22;6505;51.114;13.128;2022-11-22T09:19:20;9.00;59.10
12874;DHT22;6505;51.114;13.128;2022-11-22T09:21:48;9.00;59.10
12874;DHT22;6505;51.114;13.128;2022-11-22T09:24:18;9.00;59.30
12874;DHT22;6505;51.114;13.128;2022-11-22T09:26:46;9.00;59.30
12874;DHT22;6505;51.114;13.128;2022-11-22T09:29:14;9.00;59.40
12874;DHT22;6505;51.114;13.128;2022-11-22T09:31:42;9.00;59.50
12874;DHT22;6505;51.114;13.128;2022-11-22T09:34:10;9.00;59.60
12874;DHT22;6505;51.114;13.128;2022-11-22T09:36:38;9.10;59.70
12874;DHT22;6505;51.114;13.128;2022-11-22T09:39:07;9.10;59.90
12874;DHT22;6505;51.114;13.128;2022-11-22T09:42:07;9.10;60.10
12874;DHT22;6505;51.114;13.128;2022-11-22T09:44:59;9.10;60.60
12874;DHT22;6505;51.114;13.128;2022-11-22T09:47:46;9.20;60.70
12874;DHT22;6505;51.114;13.128;2022-11-22T09:50:29;9.20;60.60
12874;DHT22;6505;51.114;13.128;2022-11-22T09:53:11;9.20;60.80
12874;DHT22;6505;51.114;13.128;2022-11-22T09:55:45;9.20;60.90
12874;DHT22;6505;51.114;13.128;2022-11-22T09:58:25;9.20;61.10
12874;DHT22;6505;51.114;13.128;2022-11-22T10:01:01;9.20;61.60
12874;DHT22;6505;51.114;13.128;2022-11-22T10:03:41;9.30;62.10
12874;DHT22;6505;51.114;13.128;2022-11-22T10:06:18;9.30;62.50
12874;DHT22;6505;51.114;13.128;2022-11-22T10:08:56;9.30;62.60
12874;DHT22;6505;51.114;13.128;2022-11-22T10:11:37;9.30;62.70
12874;DHT22;6505;51.114;13.128;2022-11-22T10:14:23;9.40;62.70
12874;DHT22;6505;51.114;13.128;2022-11-22T10:17:01;9.40;62.80
12874;DHT22;6505;51.114;13.128;2022-11-22T10:19:49;9.40;62.70
12874;DHT22;6505;51.114;13.128;2022-11-22T10:22:28;9.50;62.90
12874;DHT22;6505;51.114;13.128;2022-11-22T10:24:57;9.50;63.10
12874;DHT22;6505;51.114;13.128;2022-11-22T10:27:30;9.50;63.20
12874;DHT22;6505;51.114;13.128;2022-11-22T10:30:04;9.50;63.10
12874;DHT22;6505;51.114;13.128;2022-11-22T10:32:45;9.60;63.20
12874;DHT22;6505;51.114;13.128;2022-11-22T10:35:27;9.50;63.00
12874;DHT22;6505;51.114;13.128;2022-11-22T10:38:25;9.60;63.00
12874;DHT22;6505;51.114;13.128;2022-11-22T10:41:10;9.60;63.10
12874;DHT22;6505;51.114;13.128;2022-11-22T10:43:54;9.60;63.10
12874;DHT22;6505;51.114;13.128;2022-11-22T10:46:40;9.60;63.10
12874;DHT22;6505;51.114;13.128;2022-11-22T10:49:35;9.70;63.40
12874;DHT22;6505;51.114;13.128;2022-11-22T10:52:17;9.70;63.40
12874;DHT22;6505;51.114;13.128;2022-11-22T10:54:58;9.70;63.30
12874;DHT22;6505;51.114;13.128;2022-11-22T10:57:36;9.70;63.40
12874;DHT22;6505;51.114;13.128;2022-11-22T11:00:17;9.80;63.50
12874;DHT22;6505;51.114;13.128;2022-11-22T11:03:01;9.80;63.40
12874;DHT22;6505;51.114;13.128;2022-11-22T11:05:41;9.80;63.50
12874;DHT22;6505;51.114;13.128;2022-11-22T11:08:36;9.80;63.40
12874;DHT22;6505;51.114;13.128;2022-11-22T11:11:28;9.90;63.60
12874;DHT22;6505;51.114;13.128;2022-11-22T11:14:00;9.90;63.70
12874;DHT22;6505;51.114;13.128;2022-11-22T11:16:34;9.90;63.60
12874;DHT22;6505;51.114;13.128;2022-11-22T11:19:13;9.90;63.70
12874;DHT22;6505;51.114;13.128;2022-11-22T11:21:43;9.90;63.70
12874;DHT22;6505;51.114;13.128;2022-11-22T11:24:13;10.00;62.60
12874;DHT22;6505;51.114;13.128;2022-11-22T11:26:51;10.00;62.60
12874;DHT22;6505;51.114;13.128;2022-11-22T11:29:37;10.00;62.70
12874;DHT22;6505;51.114;13.128;2022-11-22T11:32:13;10.00;62.80
12874;DHT22;6505;51.114;13.128;2022-11-22T11:34:55;10.10;62.80
12874;DHT22;6505;51.114;13.128;2022-11-22T11:37:26;10.10;62.70
12874;DHT22;6505;51.114;13.128;2022-11-22T11:39:59;10.10;62.60
12874;DHT22;6505;51.114;13.128;2022-11-22T11:42:29;10.10;62.50
12874;DHT22;6505;51.114;13.128;2022-11-22T11:45:24;10.10;62.60
12874;DHT22;6505;51.114;13.128;2022-11-22T11:47:54;10.10;62.70
12874;DHT22;6505;51.114;13.128;2022-11-22T11:50:26;10.20;62.60
12874;DHT22;6505;51.114;13.128;2022-11-22T11:53:02;10.20;62.80
12874;DHT22;6505;51.114;13.128;2022-11-22T11:55:33;10.20;62.80
12874;DHT22;6505;51.114;13.128;2022-11-22T11:58:12;10.20;62.80
12874;DHT22;6505;51.114;13.128;2022-11-22T12:00:46;10.20;62.80
12874;DHT22;6505;51.114;13.128;2022-11-22T12:03:16;10.30;62.70
12874;DHT22;6505;51.114;13.128;2022-11-22T12:05:47;10.30;62.80
12874;DHT22;6505;51.114;13.128;2022-11-22T12:08:40;10.30;62.80
12874;DHT22;6505;51.114;13.128;2022-11-22T12:11:11;10.30;62.60
12874;DHT22;6505;51.114;13.128;2022-11-22T12:13:48;10.30;62.80
12874;DHT22;6505;51.114;13.128;2022-11-22T12:16:43;10.40;63.00
12874;DHT22;6505;51.114;13.128;2022-11-22T12:19:19;10.40;63.00
12874;DHT22;6505;51.114;13.128;2022-11-22T12:21:57;10.40;63.00
12874;DHT22;6505;51.114;13.128;2022-11-22T12:24:34;10.40;63.00
12874;DHT22;6505;51.114;13.128;2022-11-22T12:27:26;10.40;62.90
12874;DHT22;6505;51.114;13.128;2022-11-22T12:29:55;10.40;62.80
12874;DHT22;6505;51.114;13.128;2022-11-22T12:32:27;10.50;63.00
12874;DHT22;6505;51.114;13.128;2022-11-22T12:35:02;10.50;63.00
12874;DHT22;6505;51.114;13.128;2022-11-22T12:37:38;10.50;62.90
12874;DHT22;6505;51.114;13.128;2022-11-22T12:40:14;10.50;62.90
12874;DHT22;6505;51.114;13.128;2022-11-22T12:42:47;10.50;62.90
12874;DHT22;6505;51.114;13.128;2022-11-22T12:45:25;10.60;62.90
12874;DHT22;6505;51.114;13.128;2022-11-22T12:47:58;10.60;62.90
12874;DHT22;6505;51.114;13.128;2022-11-22T12:50:44;10.60;62.90
12874;DHT22;6505;51.114;13.128;2022-11-22T12:53:19;10.60;62.80
12874;DHT22;6505;51.114;13.128;2022-11-22T12:55:56;10.60;62.80
12874;DHT22;6505;51.114;13.128;2022-11-22T12:58:36;10.60;62.90
12874;DHT22;6505;51.114;13.128;2022-11-22T13:01:13;10.60;62.90
12874;DHT22;6505;51.114;13.128;2022-11-22T13:03:47;10.60;62.90
12874;DHT22;6505;51.114;13.128;2022-11-22T13:06:22;10.60;62.90
12874;DHT22;6505;51.114;13.128;2022-11-22T13:08:58;10.70;63.00
12874;DHT22;6505;51.114;13.128;2022-11-22T13:11:33;10.70;63.10
12874;DHT22;6505;51.114;13.128;2022-11-22T13:14:11;10.70;63.10
12874;DHT22;6505;51.114;13.128;2022-11-22T13:16:48;10.70;63.00
12874;DHT22;6505;51.114;13.128;2022-11-22T13:19:20;10.70;62.90
12874;DHT22;6505;51.114;13.128;2022-11-22T13:22:06;10.70;62.90
12874;DHT22;6505;51.114;13.128;2022-11-22T13:24:57;10.70;63.00
12874;DHT22;6505;51.114;13.128;2022-11-22T13:27:40;10.70;62.90
12874;DHT22;6505;51.114;13.128;2022-11-22T13:30:17;10.70;62.80
12874;DHT22;6505;51.114;13.128;2022-11-22T13:32:50;10.70;62.80
12874;DHT22;6505;51.114;13.128;2022-11-22T13:35:27;10.70;62.80
12874;DHT22;6505;51.114;13.128;2022-11-22T13:37:59;10.80;62.90
12874;DHT22;6505;51.114;13.128;2022-11-22T13:40:33;10.80;62.90
12874;DHT22;6505;51.114;13.128;2022-11-22T13:43:30;10.80;62.90
12874;DHT22;6505;51.114;13.128;2022-11-22T13:46:49;10.80;62.90
12874;DHT22;6505;51.114;13.128;2022-11-22T13:49:34;10.80;62.80
12874;DHT22;6505;51.114;13.128;2022-11-22T13:52:29;10.80;62.70
12874;DHT22;6505;51.114;13.128;2022-11-22T13:55:30;10.80;62.60
12874;DHT22;6505;51.114;13.128;2022-11-22T14:01:58;10.80;62.50
12874;DHT22;6505;51.114;13.128;2022-11-22T14:04:38;10.80;62.60
12874;DHT22;6505;51.114;13.128;2022-11-22T14:07:33;10.80;62.30
12874;DHT22;6505;51.114;13.128;2022-11-22T14:13:30;10.80;62.70
12874;DHT22;6505;51.114;13.128;2022-11-22T14:16:18;10.80;62.80
12874;DHT22;6505;51.114;13.128;2022-11-22T14:19:04;10.80;62.70
12874;DHT22;6505;51.114;13.128;2022-11-22T14:21:48;10.80;62.70
12874;DHT22;6505;51.114;13.128;2022-11-22T14:24:35;10.80;62.80
12874;DHT22;6505;51.114;13.128;2022-11-22T14:27:24;10.80;62.80
12874;DHT22;6505;51.114;13.128;2022-11-22T14:30:13;10.80;62.70
12874;DHT22;6505;51.114;13.128;2022-11-22T14:32:50;10.80;62.60
12874;DHT22;6505;51.114;13.128;2022-11-22T14:35:26;10.90;62.70
12874;DHT22;6505;51.114;13.128;2022-11-22T14:38:28;10.80;62.70
12874;DHT22;6505;51.114;13.128;2022-11-22T14:44:20;10.80;62.80
12874;DHT22;6505;51.114;13.128;2022-11-22T14:47:01;10.90;62.80
12874;DHT22;6505;51.114;13.128;2022-11-22T14:49:39;10.90;62.90
12874;DHT22;6505;51.114;13.128;2022-11-22T14:52:17;10.90;62.90
12874;DHT22;6505;51.114;13.128;2022-11-22T14:54:49;10.90;63.10
12874;DHT22;6505;51.114;13.128;2022-11-22T14:57:23;10.90;62.90
12874;DHT22;6505;51.114;13.128;2022-11-22T15:00:14;10.90;62.90
12874;DHT22;6505;51.114;13.128;2022-11-22T15:03:12;10.90;62.80
12874;DHT22;6505;51.114;13.128;2022-11-22T15:06:03;10.90;62.70
12874;DHT22;6505;51.114;13.128;2022-11-22T15:09:07;10.90;62.50
12874;DHT22;6505;51.114;13.128;2022-11-22T15:12:20;10.90;62.50
12874;DHT22;6505;51.114;13.128;2022-11-22T15:15:28;10.90;62.40
12874;DHT22;6505;51.114;13.128;2022-11-22T15:18:26;10.90;62.40
12874;DHT22;6505;51.114;13.128;2022-11-22T15:21:25;10.90;62.30
12874;DHT22;6505;51.114;13.128;2022-11-22T15:24:22;10.90;62.10
12874;DHT22;6505;51.114;13.128;2022-11-22T15:27:25;10.90;63.30
12874;DHT22;6505;51.114;13.128;2022-11-22T15:30:17;10.90;62.30
12874;DHT22;6505;51.114;13.128;2022-11-22T15:33:21;10.90;62.10
12874;DHT22;6505;51.114;13.128;2022-11-22T15:39:35;10.90;62.10
12874;DHT22;6505;51.114;13.128;2022-11-22T15:42:25;10.90;62.00
12874;DHT22;6505;51.114;13.128;2022-11-22T15:45:13;10.80;61.80
12874;DHT22;6505;51.114;13.128;2022-11-22T15:48:04;10.90;61.90
12874;DHT22;6505;51.114;13.128;2022-11-22T15:51:02;10.90;62.70
12874;DHT22;6505;51.114;13.128;2022-11-22T15:54:17;10.90;61.90
12874;DHT22;6505;51.114;13.128;2022-11-22T15:57:29;10.90;61.90
12874;DHT22;6505;51.114;13.128;2022-11-22T16:00:07;10.90;61.90
12874;DHT22;6505;51.114;13.128;2022-11-22T16:02:38;10.80;61.80
12874;DHT22;6505;51.114;13.128;2022-11-22T16:05:23;10.90;62.60
12874;DHT22;6505;51.114;13.128;2022-11-22T16:08:20;10.80;61.80
12874;DHT22;6505;51.114;13.128;2022-11-22T16:10:55;10.90;61.70
12874;DHT22;6505;51.114;13.128;2022-11-22T16:13:25;10.80;61.60
12874;DHT22;6505;51.114;13.128;2022-11-22T16:16:15;10.80;61.60
12874;DHT22;6505;51.114;13.128;2022-11-22T16:18:46;10.80;61.70
12874;DHT22;6505;51.114;13.128;2022-11-22T16:21:22;10.80;61.60
12874;DHT22;6505;51.114;13.128;2022-11-22T16:24:14;10.80;61.60
12874;DHT22;6505;51.114;13.128;2022-11-22T16:26:53;10.80;61.60
12874;DHT22;6505;51.114;13.128;2022-11-22T16:29:28;10.80;61.60
12874;DHT22;6505;51.114;13.128;2022-11-22T16:32:03;10.80;61.60
12874;DHT22;6505;51.114;13.128;2022-11-22T16:34:36;10.80;61.60
12874;DHT22;6505;51.114;13.128;2022-11-22T16:37:23;10.80;61.60
12874;DHT22;6505;51.114;13.128;2022-11-22T16:39:53;10.80;62.50
12874;DHT22;6505;51.114;13.128;2022-11-22T16:42:22;10.80;61.50
12874;DHT22;6505;51.114;13.128;2022-11-22T16:44:52;10.80;61.50